createdAt,value
2019-05-25T00:02:13.934Z,98702.05
2019-05-25T00:04:43.481Z,98703.38
2019-05-25T00:07:10.237Z,98695.08
2019-05-25T00:09:36.939Z,98724.95
2019-05-25T00:12:04.077Z,98692.89
2019-05-25T00:14:31.144Z,98699.98
2019-05-25T00:16:57.886Z,98696.17
2019-05-25T00:19:27.429Z,98697.51
2019-05-25T00:21:54.161Z,98695.29
2019-05-25T00:24:20.909Z,98693.13
2019-05-25T00:26:47.642Z,98701.11
2019-05-25T00:29:14.756Z,98698.03
2019-05-25T00:31:41.470Z,98702.28
2019-05-25T00:34:08.208Z,98700.48
2019-05-25T00:36:35.055Z,98705.03
2019-05-25T00:39:01.935Z,98706.47
2019-05-25T00:41:28.718Z,98702.41
2019-05-25T00:43:55.790Z,98696.47
2019-05-25T00:46:22.520Z,98692.59
2019-05-25T00:48:49.242Z,98694.42
2019-05-25T00:51:15.970Z,98690.98
2019-05-25T00:53:43.056Z,98692.19
2019-05-25T00:56:09.967Z,98698.09
2019-05-25T00:58:36.799Z,98723.38
2019-05-25T01:01:03.540Z,98690.16
2019-05-25T01:03:30.252Z,98693.25
2019-05-25T01:05:57.070Z,98692.98
2019-05-25T01:08:23.772Z,98693.72
2019-05-25T01:10:50.499Z,98697.52
2019-05-25T01:13:17.206Z,98698.37
2019-05-25T01:15:43.937Z,98697.79
2019-05-25T01:18:12.575Z,98697.79
2019-05-25T01:20:39.296Z,98701.38
2019-05-25T01:23:06.066Z,98691.45
2019-05-25T01:25:33.106Z,98692.98
2019-05-25T01:27:59.988Z,98708.46
2019-05-25T01:30:26.720Z,98700.23
2019-05-25T01:32:53.438Z,98693.27
2019-05-25T01:35:20.150Z,98705.20
2019-05-25T01:37:48.616Z,98706.73
2019-05-25T01:40:17.790Z,98705.45
2019-05-25T01:42:44.828Z,98705.87
2019-05-25T01:45:11.565Z,98709.95
2019-05-25T01:47:38.306Z,98707.06
2019-05-25T01:50:05.450Z,98709.00
2019-05-25T01:52:32.194Z,98706.93
2019-05-25T01:55:00.512Z,98708.09
2019-05-25T01:57:27.631Z,98699.73
2019-05-25T01:59:54.615Z,98707.78
2019-05-25T02:02:23.304Z,98708.31
2019-05-25T02:04:50.042Z,98713.44
2019-05-25T02:07:16.781Z,98708.95
2019-05-25T02:09:43.500Z,98711.08
2019-05-25T02:12:10.231Z,98701.91
2019-05-25T02:14:36.934Z,98707.98
2019-05-25T02:17:05.188Z,98705.81
2019-05-25T02:19:31.991Z,98703.98
2019-05-25T02:21:58.760Z,98707.50
2019-05-25T02:24:25.485Z,98708.57
2019-05-25T02:26:52.231Z,98706.66
2019-05-25T02:29:18.984Z,98714.88
2019-05-25T02:31:45.984Z,98702.89
2019-05-25T02:34:13.458Z,98731.80
2019-05-25T02:36:40.169Z,98709.65
2019-05-25T02:39:07.016Z,98711.20
2019-05-25T02:41:34.385Z,98711.77
2019-05-25T02:44:01.149Z,98709.95
2019-05-25T02:46:27.852Z,98744.83
2019-05-25T02:48:55.216Z,98718.61
2019-05-25T02:51:21.914Z,98708.94
2019-05-25T02:53:49.305Z,98708.94
2019-05-25T02:56:16.044Z,98719.99
2019-05-25T02:58:42.759Z,98717.69
2019-05-25T03:01:09.463Z,98723.36
2019-05-25T03:03:36.163Z,98717.99
2019-05-25T03:06:04.247Z,98719.20
2019-05-25T03:08:30.995Z,98713.90
2019-05-25T03:10:59.645Z,98729.97
2019-05-25T03:13:27.020Z,98725.72
2019-05-25T03:15:53.850Z,98721.59
2019-05-25T03:18:20.562Z,98727.81
2019-05-25T03:20:47.276Z,98726.13
2019-05-25T03:23:14.124Z,98725.81
2019-05-25T03:25:49.274Z,98728.47
2019-05-25T03:28:09.437Z,98730.12
2019-05-25T03:30:36.537Z,98730.69
2019-05-25T03:33:03.327Z,98733.44
2019-05-25T03:35:30.418Z,98734.77
2019-05-25T03:37:57.327Z,98738.55
2019-05-25T03:40:24.040Z,98731.31
2019-05-25T03:42:50.778Z,98736.10
2019-05-25T03:45:17.527Z,98741.81
2019-05-25T03:47:44.250Z,98735.92
2019-05-25T03:50:11.032Z,98732.20
2019-05-25T03:52:37.760Z,98766.56
2019-05-25T03:55:04.573Z,98743.01
2019-05-25T03:57:31.251Z,98734.23
2019-05-25T03:59:57.969Z,98737.88
2019-05-25T04:02:25.864Z,98735.33
2019-05-25T04:04:52.592Z,98741.41
2019-05-25T04:07:19.277Z,98737.59
2019-05-25T04:09:47.416Z,98737.64
2019-05-25T04:12:14.127Z,98751.13
2019-05-25T04:14:41.268Z,98744.25
2019-05-25T04:17:07.997Z,98740.48
2019-05-25T04:19:35.420Z,98741.33
2019-05-25T04:22:02.180Z,98745.22
2019-05-25T04:24:28.914Z,98746.78
2019-05-25T04:26:55.706Z,98741.55
2019-05-25T04:29:22.459Z,98747.14
2019-05-25T04:31:49.158Z,98747.38
2019-05-25T04:34:15.872Z,98740.48
2019-05-25T04:36:42.859Z,98751.66
2019-05-25T04:39:09.598Z,98762.22
2019-05-25T04:41:36.299Z,98758.31
2019-05-25T04:44:05.560Z,98763.86
2019-05-25T04:46:33.883Z,98761.31
2019-05-25T04:49:00.625Z,98769.33
2019-05-25T04:51:27.432Z,98774.84
2019-05-25T04:53:54.146Z,98770.20
2019-05-25T04:56:20.889Z,98765.56
2019-05-25T04:58:47.600Z,98770.88
2019-05-25T05:01:14.336Z,98770.92
2019-05-25T05:03:41.031Z,98777.34
2019-05-25T05:06:07.843Z,98771.78
2019-05-25T05:08:35.693Z,98768.47
2019-05-25T05:11:02.759Z,98775.19
2019-05-25T05:13:29.535Z,98777.89
2019-05-25T05:15:56.645Z,98777.67
2019-05-25T05:18:23.377Z,98775.02
2019-05-25T05:20:50.405Z,98770.91
2019-05-25T05:23:17.178Z,98778.85
2019-05-25T05:25:43.862Z,98771.69
2019-05-25T05:28:10.949Z,98773.68
2019-05-25T05:30:37.867Z,98775.41
2019-05-25T05:33:04.918Z,98771.73
2019-05-25T05:35:31.762Z,98779.11
2019-05-25T05:37:58.651Z,98783.28
2019-05-25T05:40:25.352Z,98784.13
2019-05-25T05:42:52.069Z,98792.64
2019-05-25T05:45:18.780Z,98797.22
2019-05-25T05:47:45.644Z,98794.72
2019-05-25T05:50:12.377Z,98798.27
2019-05-25T05:52:39.141Z,98794.20
2019-05-25T05:55:07.894Z,98797.47
2019-05-25T05:57:34.717Z,98802.58
2019-05-25T06:00:01.550Z,98801.47
2019-05-25T06:02:28.277Z,98799.80
2019-05-25T06:04:55.333Z,98800.62
2019-05-25T06:07:27.449Z,98798.52
2019-05-25T06:09:55.245Z,98798.09
2019-05-25T06:12:27.856Z,98800.33
2019-05-25T06:14:54.573Z,98811.06
2019-05-25T06:17:21.433Z,98807.72
2019-05-25T06:19:48.167Z,98807.29
2019-05-25T06:22:14.912Z,98820.70
2019-05-25T06:24:41.661Z,98823.46
2019-05-25T06:27:26.478Z,98820.56
2019-05-25T06:29:43.622Z,98814.29
2019-05-25T06:32:12.627Z,98819.77
2019-05-25T06:34:40.580Z,98808.02
2019-05-25T06:37:08.089Z,98822.09
2019-05-25T06:39:35.211Z,98824.45
2019-05-25T06:42:02.315Z,98829.30
2019-05-25T06:44:31.121Z,98827.30
2019-05-25T06:46:57.847Z,98835.50
2019-05-25T06:49:24.622Z,98838.73
2019-05-25T06:51:51.324Z,98839.76
2019-05-25T06:54:18.511Z,98831.33
2019-05-25T06:56:45.231Z,98830.88
2019-05-25T06:59:13.287Z,98838.44
2019-05-25T07:01:41.487Z,98830.05
2019-05-25T07:04:08.187Z,98833.85
2019-05-25T07:06:34.929Z,98831.75
2019-05-25T07:09:01.659Z,98841.94
2019-05-25T07:11:28.479Z,98837.73
2019-05-25T07:14:01.126Z,98838.43
2019-05-25T07:16:32.821Z,98845.15
2019-05-25T07:18:59.687Z,98852.61
2019-05-25T07:21:26.589Z,98850.15
2019-05-25T07:23:53.447Z,98850.63
2019-05-25T07:26:20.255Z,98847.45
2019-05-25T07:28:47.013Z,98847.02
2019-05-25T07:31:13.845Z,98854.72
2019-05-25T07:33:40.634Z,98849.70
2019-05-25T07:36:08.019Z,98854.20
2019-05-25T07:38:35.282Z,98853.08
2019-05-25T07:41:02.016Z,98861.41
2019-05-25T07:43:28.763Z,98863.13
2019-05-25T07:45:55.530Z,98861.50
2019-05-25T07:48:22.280Z,98860.03
2019-05-25T07:50:49.027Z,98856.83
2019-05-25T07:53:16.973Z,98860.63
2019-05-25T07:55:43.820Z,98864.27
2019-05-25T07:58:17.598Z,98858.17
2019-05-25T08:00:39.354Z,98862.33
2019-05-25T08:03:06.416Z,98846.59
2019-05-25T08:05:33.478Z,98851.95
2019-05-25T08:08:00.293Z,98849.00
2019-05-25T08:10:27.525Z,98849.12
2019-05-25T08:12:55.639Z,98856.59
2019-05-25T08:15:22.493Z,98857.48
2019-05-25T08:17:49.562Z,98858.97
2019-05-25T08:20:16.264Z,98855.50
2019-05-25T08:22:43.001Z,98863.33
2019-05-25T08:25:09.739Z,98862.58
2019-05-25T08:27:36.559Z,98863.66
2019-05-25T08:30:04.543Z,98868.72
2019-05-25T08:32:31.652Z,98866.27
2019-05-25T08:35:01.197Z,98865.33
2019-05-25T08:37:27.914Z,98872.13
2019-05-25T08:39:54.741Z,98861.29
2019-05-25T08:42:21.552Z,98867.69
2019-05-25T08:44:48.343Z,98867.48
2019-05-25T08:47:15.037Z,98871.22
2019-05-25T08:49:41.952Z,98873.20
2019-05-25T08:52:08.690Z,98881.58
2019-05-25T08:54:35.389Z,98873.93
2019-05-25T08:57:02.292Z,98877.95
2019-05-25T08:59:29.074Z,98873.75
2019-05-25T09:01:55.770Z,98874.92
2019-05-25T09:04:25.549Z,98868.34
2019-05-25T09:06:52.496Z,98878.03
2019-05-25T09:09:19.334Z,98875.14
2019-05-25T09:11:46.081Z,98875.70
2019-05-25T09:14:12.830Z,98869.88
2019-05-25T09:16:39.597Z,98871.83
2019-05-25T09:19:06.303Z,98881.86
2019-05-25T09:21:33.095Z,98882.34
2019-05-25T09:23:59.833Z,98876.73
2019-05-25T09:26:26.924Z,98876.31
2019-05-25T09:29:03.942Z,98876.62
2019-05-25T09:31:22.597Z,98872.80
2019-05-25T09:33:49.742Z,98881.10
2019-05-25T09:36:16.956Z,98873.08
2019-05-25T09:38:43.715Z,98873.59
2019-05-25T09:41:11.560Z,98868.83
2019-05-25T09:43:38.670Z,98860.48
2019-05-25T09:46:05.438Z,98863.62
2019-05-25T09:48:32.202Z,98866.70
2019-05-25T09:50:58.949Z,98867.04
2019-05-25T09:53:25.694Z,98871.38
2019-05-25T09:55:52.436Z,98860.91
2019-05-25T09:58:21.329Z,98856.82
2019-05-25T10:00:53.027Z,98852.00
2019-05-25T10:03:19.768Z,98863.27
2019-05-25T10:05:46.525Z,98861.19
2019-05-25T10:08:15.795Z,98865.58
2019-05-25T10:10:42.613Z,98857.61
2019-05-25T10:13:09.475Z,98863.10
2019-05-25T10:15:36.336Z,98864.86
2019-05-25T10:18:03.065Z,98854.48
2019-05-25T10:20:29.959Z,98854.06
2019-05-25T10:22:56.721Z,98855.01
2019-05-25T10:25:23.945Z,98841.80
2019-05-25T10:27:50.726Z,98845.62
2019-05-25T10:30:20.450Z,98850.55
2019-05-25T10:32:47.200Z,98836.91
2019-05-25T10:35:14.898Z,98842.85
2019-05-25T10:37:41.683Z,98848.22
2019-05-25T10:40:08.494Z,98838.26
2019-05-25T10:42:38.114Z,98843.17
2019-05-25T10:45:05.046Z,98846.00
2019-05-25T10:47:32.207Z,98844.06
2019-05-25T10:49:59.330Z,98838.24
2019-05-25T10:52:26.096Z,98842.44
2019-05-25T10:54:52.805Z,98832.38
2019-05-25T10:57:19.584Z,98833.93
2019-05-25T10:59:53.125Z,98826.84
2019-05-25T11:02:15.015Z,98827.19
2019-05-25T11:04:41.767Z,98828.60
2019-05-25T11:07:08.522Z,98833.35
2019-05-25T11:09:37.454Z,98833.91
2019-05-25T11:12:05.639Z,98828.34
2019-05-25T11:14:32.368Z,98830.30
2019-05-25T11:16:59.234Z,98833.45
2019-05-25T11:19:29.065Z,98833.45
2019-05-25T11:21:55.930Z,98837.50
2019-05-25T11:24:22.660Z,98830.41
2019-05-25T11:26:49.528Z,98829.14
2019-05-25T11:29:16.257Z,98821.67
2019-05-25T11:31:43.472Z,98825.30
2019-05-25T11:34:10.207Z,98821.53
2019-05-25T11:36:36.958Z,98822.28
2019-05-25T11:39:05.326Z,98816.94
2019-05-25T11:41:32.476Z,98828.70
2019-05-25T11:43:59.244Z,98827.29
2019-05-25T11:46:26.104Z,98822.57
2019-05-25T11:48:52.922Z,98819.95
2019-05-25T11:51:19.635Z,98811.22
2019-05-25T11:53:46.379Z,98819.52
2019-05-25T11:56:13.412Z,98819.84
2019-05-25T11:58:47.569Z,98820.47
2019-05-25T12:01:10.886Z,98816.19
2019-05-25T12:03:37.700Z,98821.43
2019-05-25T12:06:04.425Z,98818.75
2019-05-25T12:08:31.479Z,98812.30
2019-05-25T12:10:58.234Z,98807.34
2019-05-25T12:13:25.005Z,98809.72
2019-05-25T12:15:51.738Z,98806.23
2019-05-25T12:18:18.477Z,98800.58
2019-05-25T12:20:45.214Z,98805.53
2019-05-25T12:23:12.287Z,98800.59
2019-05-25T12:25:39.062Z,98804.26
2019-05-25T12:28:05.804Z,98798.70
2019-05-25T12:30:40.746Z,98800.78
2019-05-25T12:33:01.209Z,98789.33
2019-05-25T12:35:28.323Z,98789.59
2019-05-25T12:37:55.090Z,98800.31
2019-05-25T12:40:24.428Z,98791.88
2019-05-25T12:42:51.192Z,98795.41
2019-05-25T12:45:18.370Z,98787.19
2019-05-25T12:47:45.590Z,98791.52
2019-05-25T12:50:16.029Z,98789.07
2019-05-25T12:52:42.727Z,98785.90
2019-05-25T12:55:09.483Z,98784.64
2019-05-25T12:57:36.572Z,98781.75
2019-05-25T13:00:14.770Z,98786.47
2019-05-25T13:02:32.444Z,98785.80
2019-05-25T13:04:59.236Z,98784.58
2019-05-25T13:07:26.023Z,98783.78
2019-05-25T13:09:52.873Z,98793.02
2019-05-25T13:12:19.619Z,98780.63
2019-05-25T13:14:46.442Z,98785.61
2019-05-25T13:17:13.172Z,98770.95
2019-05-25T13:19:40.298Z,98781.27
2019-05-25T13:22:08.476Z,98774.94
2019-05-25T13:24:35.151Z,98780.20
2019-05-25T13:27:01.874Z,98769.98
2019-05-25T13:29:28.630Z,98777.20
2019-05-25T13:31:55.318Z,98773.02
2019-05-25T13:34:22.067Z,98766.85
2019-05-25T13:36:48.866Z,98767.27
2019-05-25T13:39:15.657Z,98767.18
2019-05-25T13:41:42.395Z,98765.13
2019-05-25T13:44:09.255Z,98755.14
2019-05-25T13:46:36.457Z,98756.02
2019-05-25T13:49:03.247Z,98756.23
2019-05-25T13:51:29.966Z,98750.77
2019-05-25T13:53:56.847Z,98749.98
2019-05-25T13:56:23.611Z,98748.12
2019-05-25T13:58:50.440Z,98746.37
2019-05-25T14:01:28.052Z,98749.95
2019-05-25T14:03:47.288Z,98750.36
2019-05-25T14:06:14.101Z,98744.61
2019-05-25T14:08:41.147Z,98745.63
2019-05-25T14:11:07.902Z,98740.75
2019-05-25T14:13:34.625Z,98745.02
2019-05-25T14:16:07.117Z,98751.88
2019-05-25T14:18:30.111Z,98743.32
2019-05-25T14:20:57.308Z,98750.87
2019-05-25T14:23:24.001Z,98739.15
2019-05-25T14:25:50.764Z,98740.41
2019-05-25T14:28:17.910Z,98733.34
2019-05-25T14:30:45.103Z,98731.63
2019-05-25T14:33:12.500Z,98739.73
2019-05-25T14:35:39.375Z,98737.02
2019-05-25T14:38:06.198Z,98732.06
2019-05-25T14:40:32.985Z,98726.55
2019-05-25T14:43:02.423Z,98734.07
2019-05-25T14:45:29.213Z,98736.64
2019-05-25T14:47:58.849Z,98721.88
2019-05-25T14:50:25.878Z,98730.62
2019-05-25T14:52:52.697Z,98588.82
2019-05-25T14:55:19.856Z,98730.84
2019-05-25T14:57:46.675Z,98727.03
2019-05-25T15:00:14.017Z,98727.67
2019-05-25T15:02:41.087Z,98718.98
2019-05-25T15:05:08.147Z,98720.19
2019-05-25T15:07:34.859Z,98726.67
2019-05-25T15:10:01.681Z,98730.86
2019-05-25T15:12:28.843Z,98718.75
2019-05-25T15:14:57.774Z,98722.84
2019-05-25T15:17:27.783Z,98724.11
2019-05-25T15:19:54.780Z,98721.95
2019-05-25T15:22:21.490Z,98718.26
2019-05-25T15:24:48.229Z,98726.69
2019-05-25T15:27:14.943Z,98726.45
2019-05-25T15:29:41.784Z,98722.48
2019-05-25T15:32:19.490Z,98722.89
2019-05-25T15:34:37.621Z,98723.22
2019-05-25T15:37:04.623Z,98721.55
2019-05-25T15:39:31.380Z,98725.05
2019-05-25T15:41:58.075Z,98730.88
2019-05-25T15:44:24.799Z,98730.05
2019-05-25T15:46:51.557Z,98729.27
2019-05-25T15:49:18.332Z,98732.19
2019-05-25T15:51:45.082Z,98740.34
2019-05-25T15:54:11.779Z,98737.07
2019-05-25T15:56:38.543Z,98734.55
2019-05-25T15:59:05.263Z,98736.59
2019-05-25T16:01:31.978Z,98737.58
2019-05-25T16:03:58.741Z,98735.56
2019-05-25T16:06:25.975Z,98735.46
2019-05-25T16:08:52.658Z,98733.34
2019-05-25T16:11:19.365Z,98738.27
2019-05-25T16:13:46.135Z,98741.08
2019-05-25T16:16:12.944Z,98746.02
2019-05-25T16:18:40.788Z,98742.34
2019-05-25T16:21:11.300Z,98740.00
2019-05-25T16:23:38.182Z,98739.80
2019-05-25T16:26:04.879Z,98742.81
2019-05-25T16:28:31.763Z,98746.90
2019-05-25T16:30:59.534Z,98750.80
2019-05-25T16:33:26.511Z,98748.30
2019-05-25T16:35:57.730Z,98752.43
2019-05-25T16:38:22.316Z,98750.70
2019-05-25T16:40:50.220Z,98753.72
2019-05-25T16:43:17.527Z,98762.55
2019-05-25T16:45:44.231Z,98747.46
2019-05-25T16:48:10.978Z,98748.42
2019-05-25T16:50:37.685Z,98751.47
2019-05-25T16:53:04.422Z,98767.64
2019-05-25T16:55:31.139Z,98759.02
2019-05-25T16:57:57.856Z,98755.54
2019-05-25T17:00:27.816Z,98758.94
2019-05-25T17:02:58.273Z,98762.19
2019-05-25T17:05:26.409Z,98765.14
2019-05-25T17:07:54.213Z,98755.03
2019-05-25T17:10:20.960Z,98757.23
2019-05-25T17:12:47.676Z,98764.34
2019-05-25T17:15:14.435Z,98755.85
2019-05-25T17:17:41.237Z,98761.41
2019-05-25T17:20:08.349Z,98763.16
2019-05-25T17:22:35.038Z,98765.86
2019-05-25T17:25:02.188Z,98768.16
2019-05-25T17:27:31.739Z,98767.17
2019-05-25T17:29:58.487Z,98765.39
2019-05-25T17:32:25.211Z,98768.11
2019-05-25T17:34:51.957Z,98768.52
2019-05-25T17:37:18.657Z,98772.01
2019-05-25T17:39:45.485Z,98771.92
2019-05-25T17:42:12.757Z,98773.50
2019-05-25T17:44:39.510Z,98777.91
2019-05-25T17:47:06.210Z,98773.91
2019-05-25T17:49:32.931Z,98772.77
2019-05-25T17:51:59.669Z,98780.77
2019-05-25T17:54:26.404Z,98779.27
2019-05-25T17:56:53.533Z,98780.50
2019-05-25T17:59:20.285Z,98784.22
2019-05-25T18:01:46.998Z,98788.94
2019-05-25T18:04:13.765Z,98781.37
2019-05-25T18:06:40.492Z,98793.31
2019-05-25T18:09:07.320Z,98791.88
2019-05-25T18:11:34.119Z,98804.05
2019-05-25T18:14:00.853Z,98796.42
2019-05-25T18:16:27.566Z,98791.84
2019-05-25T18:18:54.302Z,98786.70
2019-05-25T18:21:21.062Z,98799.70
2019-05-25T18:23:47.799Z,98799.27
2019-05-25T18:26:14.498Z,98808.10
2019-05-25T18:28:41.229Z,98806.65
2019-05-25T18:31:08.020Z,98799.17
2019-05-25T18:33:35.226Z,98804.80
2019-05-25T18:36:01.953Z,98808.81
2019-05-25T18:38:29.052Z,98807.87
2019-05-25T18:40:56.201Z,98811.14
2019-05-25T18:43:23.250Z,98808.45
2019-05-25T18:45:50.009Z,98808.02
2019-05-25T18:48:16.845Z,98813.05
2019-05-25T18:50:43.668Z,98809.81
2019-05-25T18:53:10.429Z,98815.82
2019-05-25T18:55:37.566Z,98820.02
2019-05-25T18:58:04.289Z,98825.49
2019-05-25T19:00:31.058Z,98818.17
2019-05-25T19:02:58.513Z,98825.10
2019-05-25T19:05:25.207Z,98824.05
2019-05-25T19:07:51.925Z,98835.32
2019-05-25T19:10:20.683Z,98826.77
2019-05-25T19:12:47.381Z,98830.84
2019-05-25T19:15:15.289Z,98836.77
2019-05-25T19:17:44.441Z,98838.37
2019-05-25T19:20:12.916Z,98843.20
2019-05-25T19:22:39.583Z,98845.47
2019-05-25T19:25:06.769Z,98839.56
2019-05-25T19:27:34.765Z,98846.98
2019-05-25T19:30:01.518Z,98856.18
2019-05-25T19:32:32.209Z,98865.22
2019-05-25T19:35:00.190Z,98862.00
2019-05-25T19:37:27.311Z,98860.69
2019-05-25T19:39:54.040Z,98865.85
2019-05-25T19:42:20.797Z,98879.38
2019-05-25T19:44:47.548Z,98878.02
2019-05-25T19:47:17.134Z,98880.27
2019-05-25T19:49:44.205Z,98889.06
2019-05-25T19:52:11.013Z,98892.70
2019-05-25T19:54:37.774Z,98893.82
2019-05-25T19:57:04.643Z,98898.91
2019-05-25T19:59:31.393Z,98899.03
2019-05-25T20:01:58.127Z,98902.75
2019-05-25T20:04:24.853Z,98902.45
2019-05-25T20:06:51.703Z,98908.30
2019-05-25T20:09:18.437Z,98910.38
2019-05-25T20:11:45.217Z,98909.38
2019-05-25T20:14:11.947Z,98912.61
2019-05-25T20:16:38.693Z,98918.77
2019-05-25T20:19:05.450Z,98925.87
2019-05-25T20:21:32.202Z,98921.82
2019-05-25T20:23:58.960Z,98924.50
2019-05-25T20:26:26.090Z,98923.31
2019-05-25T20:28:52.830Z,98931.86
2019-05-25T20:31:19.574Z,98925.83
2019-05-25T20:33:46.441Z,98935.92
2019-05-25T20:36:13.185Z,98928.66
2019-05-25T20:38:40.045Z,98936.66
2019-05-25T20:41:06.781Z,98932.25
2019-05-25T20:43:34.188Z,98927.41
2019-05-25T20:46:00.897Z,98931.25
2019-05-25T20:48:27.742Z,98930.92
2019-05-25T20:50:54.461Z,98935.87
2019-05-25T20:53:21.173Z,98936.30
2019-05-25T20:55:47.905Z,98939.03
2019-05-25T20:58:17.511Z,98940.30
2019-05-25T21:00:44.348Z,98940.38
2019-05-25T21:03:13.977Z,98934.93
2019-05-25T21:05:50.337Z,98941.47
2019-05-25T21:08:11.769Z,98931.28
2019-05-25T21:10:38.837Z,98935.13
2019-05-25T21:13:05.590Z,98937.77
2019-05-25T21:15:32.307Z,98938.45
2019-05-25T21:17:59.160Z,98941.46
2019-05-25T21:20:25.905Z,98941.21
2019-05-25T21:22:52.780Z,98950.84
2019-05-25T21:25:19.530Z,98950.80
2019-05-25T21:27:46.348Z,98948.87
2019-05-25T21:30:13.290Z,98947.38
2019-05-25T21:32:40.009Z,98958.70
2019-05-25T21:35:06.929Z,98952.85
2019-05-25T21:37:33.769Z,98955.38
2019-05-25T21:40:00.871Z,98954.19
2019-05-25T21:42:27.613Z,98948.50
2019-05-25T21:44:54.324Z,98947.55
2019-05-25T21:47:21.068Z,98941.78
2019-05-25T21:49:47.820Z,98943.39
2019-05-25T21:52:15.981Z,98943.20
2019-05-25T21:54:45.733Z,98938.41
2019-05-25T21:57:12.482Z,98943.00
2019-05-25T21:59:42.383Z,98944.74
2019-05-25T22:02:10.142Z,98939.30
2019-05-25T22:04:36.986Z,98944.74
2019-05-25T22:07:03.789Z,98960.27
2019-05-25T22:09:30.540Z,98938.45
2019-05-25T22:11:57.396Z,98942.42
2019-05-25T22:14:24.260Z,98939.20
2019-05-25T22:16:51.162Z,98939.45
2019-05-25T22:19:18.003Z,98941.11
2019-05-25T22:21:46.208Z,98932.19
2019-05-25T22:24:13.262Z,98930.05
2019-05-25T22:26:39.998Z,98933.52
2019-05-25T22:29:06.918Z,98940.14
2019-05-25T22:31:34.088Z,98936.45
2019-05-25T22:34:00.851Z,98934.39
2019-05-25T22:36:39.850Z,98928.79
2019-05-25T22:38:56.524Z,98928.82
2019-05-25T22:41:25.482Z,98935.64
2019-05-25T22:43:52.370Z,98926.13
2019-05-25T22:46:19.129Z,98926.83
2019-05-25T22:48:46.201Z,98934.78
2019-05-25T22:51:13.250Z,98936.22
2019-05-25T22:53:40.012Z,98937.88
2019-05-25T22:56:06.762Z,98946.33
2019-05-25T22:58:33.904Z,98936.66
2019-05-25T23:01:00.620Z,98930.30
2019-05-25T23:03:27.464Z,98925.33
2019-05-25T23:05:54.228Z,98929.09
2019-05-25T23:08:20.968Z,98933.19
2019-05-25T23:10:47.964Z,98932.65
2019-05-25T23:13:17.650Z,98926.83
2019-05-25T23:15:44.427Z,98927.46
2019-05-25T23:18:11.182Z,98926.34
2019-05-25T23:20:38.020Z,98926.91
2019-05-25T23:23:04.724Z,98945.34
2019-05-25T23:25:31.586Z,98921.34
2019-05-25T23:27:59.896Z,98922.99
2019-05-25T23:30:28.126Z,98932.41
2019-05-25T23:32:54.850Z,98923.34
2019-05-25T23:35:21.918Z,98928.59
2019-05-25T23:37:48.612Z,98925.21
2019-05-25T23:40:15.894Z,98921.86
2019-05-25T23:42:42.853Z,98929.10
2019-05-25T23:45:09.549Z,98934.72
2019-05-25T23:47:36.438Z,98926.37
2019-05-25T23:50:04.235Z,98923.76
2019-05-25T23:52:31.263Z,98927.70
2019-05-25T23:54:57.974Z,98922.30
2019-05-25T23:57:24.725Z,98927.17
2019-05-25T23:59:52.048Z,98919.22
